Alamo Heights, Texas
Current Conditions -  °F | °C
As of 7:51 PM on Monday 20 Oct 2014 (Local Time) from KSAT Reporting Station
Broken Clouds Broken Clouds  
Wind Chill: 77°   Ceiling: 25000
Heat Index: 79°   Visibility: 10mi
Dew Point: 58°   Wind: 8mph
Humidity: 52%   Direction: 80°E
Pressure: 30"   Gusts: NA
Location:  29.4797°N, 98.4508°W
Report Text: KSAT 210051Z 08007KT 10SM FEW050 FEW150 BKN250 25/14 A3000 RMK AO2 SLP144 T02500144
Loading
Personal Weather Stations






























Interactive Weather Map
Tropical Storm Tracking
New forecast layout! Learn more

10-Day Weather Forecast

Advertisements
Track Severe Weather on mobile